createdAt,value
2018-12-21T00:00:44.083Z,6.80
2018-12-21T00:01:44.071Z,7.20
2018-12-21T00:02:44.585Z,7.00
2018-12-21T00:03:44.014Z,6.60
2018-12-21T00:04:43.989Z,7.10
2018-12-21T00:05:43.977Z,7.20
2018-12-21T00:06:43.953Z,6.80
2018-12-21T00:07:43.923Z,6.30
2018-12-21T00:08:43.899Z,6.70
2018-12-21T00:09:43.876Z,6.80
2018-12-21T00:10:43.851Z,6.70
2018-12-21T00:11:43.829Z,7.40
2018-12-21T00:12:43.806Z,6.70
2018-12-21T00:13:43.785Z,7.30
2018-12-21T00:14:43.758Z,7.70
2018-12-21T00:15:43.736Z,7.50
2018-12-21T00:16:43.724Z,7.10
2018-12-21T00:17:43.690Z,7.50
2018-12-21T00:18:43.676Z,7.50
2018-12-21T00:19:43.644Z,8.50
2018-12-21T00:20:43.622Z,7.40
2018-12-21T00:21:43.598Z,7.50
2018-12-21T00:22:43.573Z,7.20
2018-12-21T00:23:43.553Z,7.20
2018-12-21T00:24:43.540Z,7.10
2018-12-21T00:25:43.513Z,7.00
2018-12-21T00:26:43.481Z,7.60
2018-12-21T00:27:43.516Z,7.30
2018-12-21T00:28:43.443Z,8.10
2018-12-21T00:29:43.420Z,7.30
2018-12-21T00:30:43.393Z,7.00
2018-12-21T00:31:43.366Z,7.40
2018-12-21T00:32:43.357Z,7.20
2018-12-21T00:33:43.324Z,7.60
2018-12-21T00:34:43.303Z,7.30
2018-12-21T00:35:43.274Z,6.90
2018-12-21T00:36:43.256Z,8.00
2018-12-21T00:37:43.228Z,7.00
2018-12-21T00:38:43.202Z,6.80
2018-12-21T00:39:43.189Z,6.90
2018-12-21T00:40:43.188Z,7.80
2018-12-21T00:41:43.136Z,6.70
2018-12-21T00:42:43.111Z,6.70
2018-12-21T00:43:43.090Z,6.60
2018-12-21T00:44:43.065Z,6.80
2018-12-21T00:45:43.046Z,6.60
2018-12-21T00:46:43.019Z,7.60
2018-12-21T00:47:42.993Z,7.20
2018-12-21T00:48:42.974Z,6.90
2018-12-21T00:49:42.950Z,6.80
2018-12-21T00:50:42.923Z,6.80
2018-12-21T00:51:42.900Z,6.30
2018-12-21T00:52:42.890Z,6.70
2018-12-21T00:53:42.855Z,6.70
2018-12-21T00:54:42.834Z,6.30
2018-12-21T00:55:42.810Z,6.80
2018-12-21T00:56:42.788Z,7.30
2018-12-21T00:57:42.763Z,6.80
2018-12-21T00:58:42.748Z,5.90
2018-12-21T00:59:42.715Z,5.60
2018-12-21T01:00:42.851Z,5.80
2018-12-21T01:01:42.669Z,6.20
2018-12-21T01:02:42.646Z,6.60
2018-12-21T01:03:42.624Z,5.50
2018-12-21T01:04:42.604Z,6.00
2018-12-21T01:05:42.579Z,6.00
2018-12-21T01:06:42.562Z,5.10
2018-12-21T01:07:42.540Z,5.90
2018-12-21T01:08:42.506Z,5.70
2018-12-21T01:09:42.494Z,5.70
2018-12-21T01:10:42.462Z,5.70
2018-12-21T01:11:42.438Z,4.90
2018-12-21T01:12:42.423Z,5.20
2018-12-21T01:13:42.466Z,5.80
2018-12-21T01:14:42.368Z,5.50
2018-12-21T01:15:42.354Z,4.90
2018-12-21T01:16:42.323Z,5.10
2018-12-21T01:17:42.302Z,5.60
2018-12-21T01:18:42.277Z,4.50
2018-12-21T01:19:42.253Z,5.60
2018-12-21T01:20:42.229Z,4.80
2018-12-21T01:21:42.207Z,4.40
2018-12-21T01:22:42.190Z,4.70
2018-12-21T01:23:42.160Z,4.30
2018-12-21T01:24:42.138Z,4.60
2018-12-21T01:25:42.113Z,4.80
2018-12-21T01:26:42.097Z,4.80
2018-12-21T01:27:42.072Z,5.10
2018-12-21T01:28:42.045Z,4.60
2018-12-21T01:29:42.037Z,4.40
2018-12-21T01:30:41.997Z,4.30
2018-12-21T01:31:41.975Z,4.40
2018-12-21T01:32:41.952Z,4.70
2018-12-21T01:33:41.928Z,4.40
2018-12-21T01:34:41.912Z,4.20
2018-12-21T01:35:41.882Z,3.80
2018-12-21T01:36:41.859Z,4.40
2018-12-21T01:37:41.844Z,4.10
2018-12-21T01:38:41.827Z,4.20
2018-12-21T01:39:41.790Z,4.30
2018-12-21T01:40:41.767Z,3.90
2018-12-21T01:41:41.751Z,4.00
2018-12-21T01:42:41.723Z,4.10
2018-12-21T01:43:41.707Z,4.30
2018-12-21T01:44:41.681Z,4.00
2018-12-21T01:45:41.651Z,4.40
2018-12-21T01:46:41.628Z,3.30
2018-12-21T01:47:41.604Z,4.30
2018-12-21T01:48:41.580Z,4.30
2018-12-21T01:49:41.563Z,3.80
2018-12-21T01:50:41.534Z,3.90
2018-12-21T01:51:47.058Z,4.10
2018-12-21T01:52:41.489Z,4.10
2018-12-21T01:53:41.467Z,3.60
2018-12-21T01:54:41.442Z,4.10
2018-12-21T01:55:41.419Z,3.80
2018-12-21T01:56:41.396Z,3.90
2018-12-21T01:57:41.371Z,3.70
2018-12-21T01:58:41.349Z,4.40
2018-12-21T01:59:41.324Z,3.80
2018-12-21T02:00:41.303Z,4.10
2018-12-21T02:01:41.382Z,3.80
2018-12-21T02:02:41.256Z,3.70
2018-12-21T02:03:41.233Z,3.70
2018-12-21T02:04:41.221Z,3.80
2018-12-21T02:05:41.186Z,3.70
2018-12-21T02:06:41.164Z,3.50
2018-12-21T02:07:41.142Z,3.50
2018-12-21T02:08:41.118Z,3.70
2018-12-21T02:09:41.095Z,3.60
2018-12-21T02:10:41.078Z,3.80
2018-12-21T02:11:41.049Z,3.50
2018-12-21T02:12:41.040Z,3.70
2018-12-21T02:13:41.005Z,3.30
2018-12-21T02:14:40.979Z,3.90
2018-12-21T02:15:40.954Z,3.50
2018-12-21T02:16:40.935Z,4.00
2018-12-21T02:17:40.907Z,4.30
2018-12-21T02:18:40.885Z,3.80
2018-12-21T02:19:40.867Z,3.70
2018-12-21T02:20:40.839Z,3.30
2018-12-21T02:21:40.823Z,3.80
2018-12-21T02:22:40.829Z,3.80
2018-12-21T02:23:40.811Z,3.90
2018-12-21T02:24:40.746Z,3.20
2018-12-21T02:25:40.723Z,3.50
2018-12-21T02:26:40.714Z,3.20
2018-12-21T02:27:40.677Z,4.20
2018-12-21T02:28:40.655Z,3.40
2018-12-21T02:29:40.630Z,3.10
2018-12-21T02:30:40.616Z,3.30
2018-12-21T02:31:40.584Z,3.90
2018-12-21T02:32:40.561Z,3.30
2018-12-21T02:33:40.544Z,3.00
2018-12-21T02:34:40.531Z,3.20
2018-12-21T02:35:40.492Z,4.00
2018-12-21T02:36:40.466Z,3.40
2018-12-21T02:37:40.444Z,3.30
2018-12-21T02:38:40.422Z,3.60
2018-12-21T02:39:40.402Z,3.40
2018-12-21T02:40:40.484Z,3.00
2018-12-21T02:41:40.350Z,3.70
2018-12-21T02:42:40.332Z,3.40
2018-12-21T02:43:40.304Z,3.10
2018-12-21T02:44:40.281Z,3.40
2018-12-21T02:45:40.261Z,3.20
2018-12-21T02:46:40.235Z,3.10
2018-12-21T02:47:40.210Z,2.80
2018-12-21T02:48:40.187Z,3.40
2018-12-21T02:49:40.163Z,3.00
2018-12-21T02:50:40.142Z,3.10
2018-12-21T02:51:40.124Z,3.10
2018-12-21T02:52:40.095Z,3.30
2018-12-21T02:53:40.071Z,3.10
2018-12-21T02:54:40.046Z,2.80
2018-12-21T02:55:40.024Z,3.20
2018-12-21T02:56:40.000Z,2.70
2018-12-21T02:57:39.977Z,3.20
2018-12-21T02:58:39.953Z,3.10
2018-12-21T02:59:39.930Z,3.60
2018-12-21T03:00:39.906Z,3.50
2018-12-21T03:01:39.883Z,3.00
2018-12-21T03:02:39.860Z,2.70
2018-12-21T03:03:39.843Z,3.20
2018-12-21T03:04:39.814Z,3.40
2018-12-21T03:05:39.790Z,3.90
2018-12-21T03:06:39.766Z,3.30
2018-12-21T03:07:39.748Z,3.50
2018-12-21T03:08:39.728Z,3.00
2018-12-21T03:09:39.708Z,3.10
2018-12-21T03:10:39.688Z,3.20
2018-12-21T03:11:39.655Z,3.00
2018-12-21T03:12:39.639Z,3.10
2018-12-21T03:13:39.603Z,3.10
2018-12-21T03:14:39.582Z,2.70
2018-12-21T03:15:39.557Z,3.40
2018-12-21T03:16:39.535Z,3.00
2018-12-21T03:17:39.512Z,3.50
2018-12-21T03:18:39.487Z,3.10
2018-12-21T03:19:39.468Z,3.00
2018-12-21T03:20:39.441Z,3.10
2018-12-21T03:21:39.427Z,3.40
2018-12-21T03:22:39.394Z,2.90
2018-12-21T03:23:39.372Z,3.00
2018-12-21T03:24:39.349Z,3.20
2018-12-21T03:25:39.326Z,3.20
2018-12-21T03:26:39.310Z,3.30
2018-12-21T03:27:39.277Z,3.20
2018-12-21T03:28:39.256Z,3.30
2018-12-21T03:29:39.230Z,3.50
2018-12-21T03:30:39.217Z,3.40
2018-12-21T03:31:39.186Z,3.30
2018-12-21T03:32:39.169Z,2.80
2018-12-21T03:33:39.140Z,2.90
2018-12-21T03:34:39.116Z,2.70
2018-12-21T03:35:39.093Z,2.80
2018-12-21T03:36:39.068Z,2.80
2018-12-21T03:37:39.052Z,3.10
2018-12-21T03:38:39.022Z,3.00
2018-12-21T03:39:38.998Z,2.80
2018-12-21T03:40:38.981Z,2.50
2018-12-21T03:41:38.952Z,3.30
2018-12-21T03:42:38.929Z,3.10
2018-12-21T03:43:38.903Z,2.80
2018-12-21T03:44:38.888Z,3.30
2018-12-21T03:45:38.857Z,3.50
2018-12-21T03:46:38.834Z,3.00
2018-12-21T03:47:38.813Z,2.90
2018-12-21T03:48:38.794Z,3.10
2018-12-21T03:49:38.767Z,2.80
2018-12-21T03:50:38.740Z,2.70
2018-12-21T03:51:38.718Z,2.70
2018-12-21T03:52:38.696Z,2.60
2018-12-21T03:53:38.677Z,2.70
2018-12-21T03:54:38.646Z,2.60
2018-12-21T03:55:38.636Z,3.10
2018-12-21T03:56:38.601Z,3.20
2018-12-21T03:57:38.578Z,2.50
2018-12-21T03:58:38.556Z,2.60
2018-12-21T03:59:38.533Z,2.40
2018-12-21T04:00:38.507Z,2.70
2018-12-21T04:01:38.484Z,2.50
2018-12-21T04:02:38.460Z,2.90
2018-12-21T04:03:38.436Z,2.60
2018-12-21T04:04:38.412Z,3.00
2018-12-21T04:05:38.442Z,2.60
2018-12-21T04:06:38.364Z,2.70
2018-12-21T04:07:38.344Z,2.50
2018-12-21T04:08:38.320Z,3.10
2018-12-21T04:09:38.297Z,2.70
2018-12-21T04:10:38.272Z,2.60
2018-12-21T04:11:38.256Z,2.80
2018-12-21T04:12:38.229Z,2.50
2018-12-21T04:13:38.202Z,2.80
2018-12-21T04:14:38.179Z,3.10
2018-12-21T04:15:38.156Z,2.50
2018-12-21T04:16:38.134Z,2.50
2018-12-21T04:17:38.114Z,3.20
2018-12-21T04:18:38.087Z,3.00
2018-12-21T04:19:38.078Z,2.70
2018-12-21T04:20:38.039Z,2.60
2018-12-21T04:21:38.016Z,2.20
2018-12-21T04:22:37.996Z,2.60
2018-12-21T04:23:37.969Z,2.50
2018-12-21T04:24:37.994Z,2.90
2018-12-21T04:25:37.929Z,2.50
2018-12-21T04:26:37.896Z,3.10
2018-12-21T04:27:37.974Z,2.50
2018-12-21T04:28:37.850Z,2.60
2018-12-21T04:29:37.827Z,2.50
2018-12-21T04:30:37.806Z,2.50
2018-12-21T04:31:37.778Z,2.50
2018-12-21T04:32:37.756Z,3.00
2018-12-21T04:33:37.735Z,2.60
2018-12-21T04:34:37.714Z,2.80
2018-12-21T04:35:37.686Z,2.70
2018-12-21T04:36:37.661Z,2.70
2018-12-21T04:37:37.647Z,2.70
2018-12-21T04:38:37.617Z,3.00
2018-12-21T04:39:37.591Z,2.50
2018-12-21T04:40:37.568Z,2.70
2018-12-21T04:41:37.544Z,2.30
2018-12-21T04:42:37.523Z,2.50
2018-12-21T04:43:37.505Z,2.20
2018-12-21T04:44:37.473Z,2.40
2018-12-21T04:45:37.453Z,2.20
2018-12-21T04:46:37.427Z,2.00
2018-12-21T04:47:37.402Z,2.30
2018-12-21T04:48:37.381Z,2.50
2018-12-21T04:49:37.358Z,2.60
2018-12-21T04:50:37.334Z,2.50
2018-12-21T04:51:37.309Z,2.40
2018-12-21T04:52:43.122Z,2.60
2018-12-21T04:53:37.264Z,2.90
2018-12-21T04:54:37.239Z,2.00
2018-12-21T04:55:37.215Z,2.20
2018-12-21T04:56:37.194Z,2.50
2018-12-21T04:57:37.179Z,2.40
2018-12-21T04:58:37.160Z,2.20
2018-12-21T04:59:37.125Z,2.30
2018-12-21T05:00:37.099Z,2.00
2018-12-21T05:01:37.076Z,2.40
2018-12-21T05:02:37.057Z,2.10
2018-12-21T05:03:37.031Z,2.10
2018-12-21T05:04:37.012Z,2.30
2018-12-21T05:05:39.430Z,2.70
2018-12-21T05:06:36.958Z,2.40
2018-12-21T05:07:36.935Z,2.10
2018-12-21T05:08:37.029Z,2.40
2018-12-21T05:09:36.894Z,2.10
2018-12-21T05:10:36.867Z,2.30
2018-12-21T05:11:36.843Z,2.10
2018-12-21T05:12:36.819Z,2.30
2018-12-21T05:13:36.797Z,2.10
2018-12-21T05:14:36.773Z,2.30
2018-12-21T05:15:36.750Z,2.20
2018-12-21T05:16:36.725Z,2.20
2018-12-21T05:17:36.714Z,2.30
2018-12-21T05:18:36.685Z,2.30
2018-12-21T05:19:36.655Z,2.60
2018-12-21T05:20:36.632Z,2.10
2018-12-21T05:21:36.610Z,2.00
2018-12-21T05:22:36.586Z,2.20
2018-12-21T05:23:36.571Z,2.20
2018-12-21T05:24:36.541Z,1.90
2018-12-21T05:25:36.518Z,2.10
2018-12-21T05:26:36.494Z,2.10
2018-12-21T05:27:36.471Z,1.80
2018-12-21T05:28:36.447Z,2.70
2018-12-21T05:29:36.425Z,2.20
2018-12-21T05:30:36.410Z,2.40
2018-12-21T05:31:36.377Z,2.20
2018-12-21T05:32:36.357Z,2.00
2018-12-21T05:33:36.334Z,1.80
2018-12-21T05:34:36.315Z,2.20
2018-12-21T05:35:36.291Z,1.90
2018-12-21T05:36:36.314Z,2.10
2018-12-21T05:37:36.239Z,2.10
2018-12-21T05:38:36.215Z,2.30
2018-12-21T05:39:36.201Z,2.00
2018-12-21T05:40:36.170Z,1.80
2018-12-21T05:41:36.151Z,2.20
2018-12-21T05:42:36.123Z,2.30
2018-12-21T05:43:36.101Z,1.90
2018-12-21T05:44:36.077Z,2.00
2018-12-21T05:45:36.054Z,2.20
2018-12-21T05:46:36.030Z,2.00
2018-12-21T05:47:36.008Z,2.10
2018-12-21T05:48:35.987Z,2.10
2018-12-21T05:49:35.963Z,2.10
2018-12-21T05:50:35.939Z,2.10
2018-12-21T05:51:35.919Z,1.70
2018-12-21T05:52:35.895Z,2.30
2018-12-21T05:53:35.924Z,2.10
2018-12-21T05:54:35.862Z,2.20
2018-12-21T05:55:35.824Z,1.90
2018-12-21T05:56:35.801Z,1.80
2018-12-21T05:57:35.777Z,1.60
2018-12-21T05:58:35.757Z,1.80
2018-12-21T05:59:35.732Z,2.30
2018-12-21T06:00:35.711Z,2.00
2018-12-21T06:01:35.684Z,2.00
2018-12-21T06:02:35.663Z,1.90
2018-12-21T06:03:35.639Z,1.90
2018-12-21T06:04:35.614Z,2.00
2018-12-21T06:05:35.600Z,1.90
2018-12-21T06:06:35.580Z,2.30
2018-12-21T06:07:35.543Z,2.10
2018-12-21T06:08:35.529Z,1.80
2018-12-21T06:09:35.498Z,2.30
2018-12-21T06:10:35.476Z,2.00
2018-12-21T06:11:35.454Z,2.40
2018-12-21T06:12:35.429Z,2.30
2018-12-21T06:13:35.405Z,1.90
2018-12-21T06:14:35.392Z,2.10
2018-12-21T06:15:35.360Z,2.00
2018-12-21T06:16:35.338Z,1.90
2018-12-21T06:17:35.315Z,1.70
2018-12-21T06:18:35.290Z,1.80
2018-12-21T06:19:35.267Z,1.90
2018-12-21T06:20:35.245Z,1.80
2018-12-21T06:21:35.223Z,2.10
2018-12-21T06:22:35.196Z,1.70
2018-12-21T06:23:35.173Z,2.10
2018-12-21T06:24:35.151Z,2.10
2018-12-21T06:25:35.161Z,2.60
2018-12-21T06:26:35.106Z,1.90
2018-12-21T06:27:35.090Z,2.00
2018-12-21T06:28:35.059Z,2.20
2018-12-21T06:29:35.035Z,1.70
2018-12-21T06:30:35.011Z,2.20
2018-12-21T06:31:34.995Z,1.70
2018-12-21T06:32:34.964Z,1.90
2018-12-21T06:33:34.945Z,1.80
2018-12-21T06:34:34.918Z,1.80
2018-12-21T06:35:34.896Z,1.70
2018-12-21T06:36:34.882Z,1.70
2018-12-21T06:37:34.855Z,1.60
2018-12-21T06:38:34.825Z,1.60
2018-12-21T06:39:34.813Z,1.90
2018-12-21T06:40:34.783Z,1.90
2018-12-21T06:41:34.756Z,2.10
2018-12-21T06:42:34.739Z,1.90
2018-12-21T06:43:34.710Z,2.20
2018-12-21T06:44:34.688Z,2.10
2018-12-21T06:45:34.663Z,1.90
2018-12-21T06:46:34.642Z,1.90
2018-12-21T06:47:34.734Z,2.20
2018-12-21T06:48:34.595Z,2.00
2018-12-21T06:49:34.574Z,2.30
2018-12-21T06:50:34.550Z,2.10
2018-12-21T06:51:34.523Z,1.70
2018-12-21T06:52:34.508Z,1.90
2018-12-21T06:53:34.479Z,1.70
2018-12-21T06:54:34.453Z,2.20
2018-12-21T06:55:34.431Z,2.00
2018-12-21T06:56:34.408Z,1.80
2018-12-21T06:57:34.394Z,2.00
2018-12-21T06:58:34.361Z,1.80
2018-12-21T06:59:34.343Z,2.00
2018-12-21T07:00:34.324Z,2.20
2018-12-21T07:01:34.293Z,1.90
2018-12-21T07:02:34.266Z,2.20
2018-12-21T07:03:34.252Z,1.90
2018-12-21T07:04:34.231Z,1.80
2018-12-21T07:05:34.199Z,1.90
2018-12-21T07:06:34.179Z,2.20
2018-12-21T07:07:34.152Z,2.60
2018-12-21T07:08:34.129Z,1.90
2018-12-21T07:09:34.108Z,1.70
2018-12-21T07:10:34.081Z,1.80
2018-12-21T07:11:34.060Z,2.10
2018-12-21T07:12:34.037Z,1.90
2018-12-21T07:13:34.011Z,2.20
2018-12-21T07:14:33.989Z,1.80
2018-12-21T07:15:33.964Z,1.80
2018-12-21T07:16:33.951Z,1.90
2018-12-21T07:17:33.916Z,2.00
2018-12-21T07:18:33.892Z,2.20
2018-12-21T07:19:33.869Z,1.80
2018-12-21T07:20:33.847Z,1.80
2018-12-21T07:21:33.831Z,2.10
2018-12-21T07:22:33.799Z,2.00
2018-12-21T07:23:33.785Z,1.80
2018-12-21T07:24:33.751Z,1.90
2018-12-21T07:25:33.730Z,2.00
2018-12-21T07:26:33.706Z,2.20
2018-12-21T07:27:33.683Z,1.90
2018-12-21T07:28:33.670Z,2.10
2018-12-21T07:29:33.646Z,2.00
2018-12-21T07:30:33.610Z,2.00
2018-12-21T07:31:33.588Z,2.00
2018-12-21T07:32:33.568Z,1.90
2018-12-21T07:33:33.549Z,1.70
2018-12-21T07:34:33.519Z,1.60
2018-12-21T07:35:33.495Z,2.10
2018-12-21T07:36:33.471Z,1.90
2018-12-21T07:37:33.461Z,1.80
2018-12-21T07:38:33.422Z,2.00
2018-12-21T07:39:33.399Z,1.90
2018-12-21T07:40:33.376Z,2.60
2018-12-21T07:41:33.366Z,1.80
2018-12-21T07:42:33.325Z,2.20
2018-12-21T07:43:33.309Z,1.90
2018-12-21T07:44:33.280Z,2.00
2018-12-21T07:45:33.261Z,2.00
2018-12-21T07:46:33.245Z,1.70
2018-12-21T07:47:33.210Z,1.90
2018-12-21T07:48:33.195Z,1.90
2018-12-21T07:49:33.173Z,2.00
2018-12-21T07:50:33.143Z,2.00
2018-12-21T07:51:33.112Z,1.80
2018-12-21T07:52:33.088Z,1.80
2018-12-21T07:53:35.859Z,1.80
2018-12-21T07:54:33.041Z,1.80
2018-12-21T07:55:33.024Z,1.90
2018-12-21T07:56:32.998Z,2.00
2018-12-21T07:57:32.969Z,1.90
2018-12-21T07:58:32.944Z,2.00
2018-12-21T07:59:32.927Z,1.80
2018-12-21T08:00:32.898Z,1.70
2018-12-21T08:01:32.874Z,1.80
2018-12-21T08:02:32.849Z,1.90
2018-12-21T08:03:32.831Z,2.00
2018-12-21T08:05:32.831Z,1.70
2018-12-21T08:06:32.754Z,2.20
2018-12-21T08:07:32.729Z,2.20
2018-12-21T08:08:32.707Z,2.00
2018-12-21T08:09:32.695Z,2.00
2018-12-21T08:10:32.660Z,1.70
2018-12-21T08:11:32.633Z,1.90
2018-12-21T08:12:32.611Z,1.70
2018-12-21T08:13:32.586Z,1.90
2018-12-21T08:14:32.562Z,2.00
2018-12-21T08:15:32.539Z,1.80
2018-12-21T08:16:32.517Z,1.90
2018-12-21T08:17:32.492Z,1.70
2018-12-21T08:18:32.467Z,2.00
2018-12-21T08:19:32.445Z,2.30
2018-12-21T08:20:32.424Z,1.90
2018-12-21T08:21:32.396Z,1.90
2018-12-21T08:22:32.370Z,1.80
2018-12-21T08:23:32.355Z,1.80
2018-12-21T08:24:32.340Z,1.80
2018-12-21T08:25:32.309Z,2.20
2018-12-21T08:26:32.282Z,2.00
2018-12-21T08:27:32.417Z,1.60
2018-12-21T08:28:32.234Z,2.10
2018-12-21T08:29:32.210Z,1.70
2018-12-21T08:30:32.181Z,1.70
2018-12-21T08:31:32.160Z,1.90
2018-12-21T08:32:32.135Z,1.80
2018-12-21T08:33:32.110Z,1.70
2018-12-21T08:34:32.087Z,2.00
2018-12-21T08:35:32.075Z,1.90
2018-12-21T08:36:32.040Z,2.40
2018-12-21T08:37:32.019Z,1.90
2018-12-21T08:38:31.991Z,2.10
2018-12-21T08:39:31.980Z,2.30
2018-12-21T08:40:31.943Z,2.30
2018-12-21T08:41:31.921Z,2.10
2018-12-21T08:42:31.898Z,2.10
2018-12-21T08:43:31.873Z,1.70
2018-12-21T08:44:31.851Z,1.60
2018-12-21T08:45:31.833Z,2.00
2018-12-21T08:46:31.804Z,2.00
2018-12-21T08:47:31.786Z,2.00
2018-12-21T08:48:31.762Z,1.90
2018-12-21T08:49:32.388Z,2.10
2018-12-21T08:50:31.712Z,2.40
2018-12-21T08:51:31.779Z,1.70
2018-12-21T08:52:31.664Z,1.80
2018-12-21T08:53:31.639Z,1.80
2018-12-21T08:54:31.616Z,1.80
2018-12-21T08:55:31.592Z,2.50
2018-12-21T08:56:31.574Z,1.70
2018-12-21T08:57:31.546Z,2.00
2018-12-21T08:58:31.521Z,1.80
2018-12-21T08:59:31.499Z,1.90
2018-12-21T09:00:31.479Z,1.80
2018-12-21T09:01:31.452Z,1.80
2018-12-21T09:02:31.428Z,1.70
2018-12-21T09:03:31.404Z,1.80
2018-12-21T09:04:32.269Z,1.70
2018-12-21T09:05:31.367Z,1.60
2018-12-21T09:06:31.348Z,1.70
2018-12-21T09:07:31.318Z,2.10
2018-12-21T09:08:31.296Z,1.70
2018-12-21T09:09:31.264Z,1.80
2018-12-21T09:10:31.242Z,1.50
2018-12-21T09:11:31.217Z,1.80
2018-12-21T09:12:31.194Z,1.50
2018-12-21T09:13:31.171Z,1.70
2018-12-21T09:14:31.145Z,1.70
2018-12-21T09:15:31.136Z,1.90
2018-12-21T09:16:31.107Z,1.80
2018-12-21T09:17:31.083Z,1.90
2018-12-21T09:18:31.065Z,1.70
2018-12-21T09:19:31.038Z,1.50
2018-12-21T09:20:31.018Z,1.60
2018-12-21T09:21:30.985Z,1.50
2018-12-21T09:22:30.961Z,1.70
2018-12-21T09:23:30.941Z,1.60
2018-12-21T09:24:30.915Z,1.70
2018-12-21T09:25:30.893Z,2.00
2018-12-21T09:26:30.888Z,1.70
2018-12-21T09:27:30.847Z,2.00
2018-12-21T09:28:30.822Z,1.60
2018-12-21T09:29:30.800Z,2.10
2018-12-21T09:30:30.785Z,1.80
2018-12-21T09:31:30.766Z,1.80
2018-12-21T09:32:30.732Z,1.80
2018-12-21T09:33:30.712Z,1.70
2018-12-21T09:34:30.685Z,1.70
2018-12-21T09:35:30.663Z,1.60
2018-12-21T09:36:30.636Z,2.30
2018-12-21T09:37:30.627Z,1.90
2018-12-21T09:38:30.595Z,1.90
2018-12-21T09:39:30.582Z,1.80
2018-12-21T09:40:30.546Z,2.30
2018-12-21T09:41:30.534Z,3.90
2018-12-21T09:42:30.499Z,3.00
2018-12-21T09:43:30.582Z,1.70
2018-12-21T09:44:30.450Z,1.80
2018-12-21T09:45:30.427Z,1.80
2018-12-21T09:46:30.411Z,1.80
2018-12-21T09:47:30.381Z,1.80
2018-12-21T09:48:30.360Z,1.70
2018-12-21T09:49:30.347Z,1.90
2018-12-21T09:50:30.311Z,1.80
2018-12-21T09:51:30.289Z,2.00
2018-12-21T09:52:30.265Z,1.70
2018-12-21T09:53:30.250Z,1.70
2018-12-21T09:54:30.219Z,1.90
2018-12-21T09:55:30.205Z,1.80
2018-12-21T09:56:30.172Z,1.80
2018-12-21T09:57:30.150Z,1.70
2018-12-21T09:58:30.126Z,1.60
2018-12-21T09:59:30.103Z,1.70
2018-12-21T10:00:30.087Z,1.60
2018-12-21T10:01:30.065Z,1.60
2018-12-21T10:02:35.671Z,1.60
2018-12-21T10:03:30.010Z,1.70
2018-12-21T10:04:29.996Z,1.90
2018-12-21T10:05:29.965Z,1.70
2018-12-21T10:06:29.941Z,1.90
2018-12-21T10:07:29.973Z,1.80
2018-12-21T10:08:29.896Z,2.00
2018-12-21T10:09:29.884Z,1.80
2018-12-21T10:10:29.857Z,1.60
2018-12-21T10:11:29.849Z,2.50
2018-12-21T10:12:29.805Z,1.60
2018-12-21T10:13:29.781Z,1.70
2018-12-21T10:14:29.755Z,1.50
2018-12-21T10:15:29.737Z,1.60
2018-12-21T10:16:29.711Z,1.50
2018-12-21T10:17:29.687Z,1.50
2018-12-21T10:18:29.672Z,1.60
2018-12-21T10:19:29.648Z,1.70
2018-12-21T10:20:29.628Z,1.40
2018-12-21T10:21:29.595Z,1.70
2018-12-21T10:22:29.575Z,1.50
2018-12-21T10:23:29.556Z,1.50
2018-12-21T10:24:29.534Z,1.80
2018-12-21T10:25:29.515Z,1.70
2018-12-21T10:26:29.479Z,1.50
2018-12-21T10:27:29.465Z,1.70
2018-12-21T10:28:29.433Z,1.50
2018-12-21T10:29:29.411Z,1.60
2018-12-21T10:30:29.387Z,2.40
2018-12-21T10:31:29.365Z,1.70
2018-12-21T10:32:29.342Z,2.60
2018-12-21T10:33:29.328Z,1.80
2018-12-21T10:34:29.304Z,2.10
2018-12-21T10:35:29.284Z,2.20
2018-12-21T10:36:29.566Z,2.40
2018-12-21T10:37:29.247Z,2.20
2018-12-21T10:38:29.211Z,2.50
2018-12-21T10:39:29.187Z,2.50
2018-12-21T10:40:29.158Z,2.60
2018-12-21T10:41:29.750Z,2.70
2018-12-21T10:42:29.843Z,2.80
2018-12-21T10:43:29.401Z,3.30
2018-12-21T10:44:29.095Z,3.40
2018-12-21T10:45:29.787Z,3.10
2018-12-21T10:46:29.086Z,2.80
2018-12-21T10:47:29.000Z,3.20
2018-12-21T10:48:28.983Z,3.50
2018-12-21T10:49:31.899Z,3.30
2018-12-21T10:50:29.447Z,3.10
2018-12-21T10:51:29.671Z,3.60
2018-12-21T10:52:29.210Z,3.20
2018-12-21T10:53:29.171Z,3.10
2018-12-21T10:54:28.840Z,3.80
2018-12-21T10:55:28.847Z,3.60
2018-12-21T10:56:28.829Z,3.60
2018-12-21T10:57:28.821Z,3.50
2018-12-21T10:58:28.756Z,3.40
2018-12-21T10:59:28.723Z,3.40
2018-12-21T11:00:28.707Z,3.00
2018-12-21T11:01:28.708Z,3.00
2018-12-21T11:02:28.695Z,3.10
2018-12-21T11:03:29.170Z,2.90
2018-12-21T11:04:28.945Z,2.70
2018-12-21T11:05:28.585Z,2.70
2018-12-21T11:06:28.571Z,2.50
2018-12-21T11:08:29.162Z,2.80
2018-12-21T11:09:28.707Z,2.70
2018-12-21T11:10:28.501Z,2.80
2018-12-21T11:11:28.452Z,2.30
2018-12-21T11:12:28.435Z,2.50
2018-12-21T11:13:28.723Z,2.40
2018-12-21T11:14:28.706Z,3.00
2018-12-21T11:15:28.365Z,2.70
2018-12-21T11:16:28.446Z,2.80
2018-12-21T11:17:28.321Z,2.50
2018-12-21T11:18:28.310Z,2.70
2018-12-21T11:19:28.286Z,3.00
2018-12-21T11:20:28.547Z,3.30
2018-12-21T11:21:28.222Z,3.10
2018-12-21T11:22:28.749Z,3.40
2018-12-21T11:23:28.177Z,3.50
2018-12-21T11:24:35.465Z,3.60
2018-12-21T11:25:28.850Z,3.70
2018-12-21T11:26:28.111Z,3.80
2018-12-21T11:27:28.093Z,3.70
2018-12-21T11:28:28.072Z,4.20
2018-12-21T11:29:28.059Z,4.00
2018-12-21T11:30:28.018Z,4.20
2018-12-21T11:31:27.997Z,4.30
2018-12-21T11:32:27.976Z,4.00
2018-12-21T11:33:27.961Z,3.90
2018-12-21T11:34:28.259Z,4.30
2018-12-21T11:35:27.924Z,4.40
2018-12-21T11:36:28.204Z,4.10
2018-12-21T11:37:27.884Z,4.10
2018-12-21T11:38:28.000Z,3.90
2018-12-21T11:39:28.137Z,4.00
2018-12-21T11:40:27.805Z,3.90
2018-12-21T11:41:27.985Z,4.30
2018-12-21T11:42:27.749Z,3.90
2018-12-21T11:43:28.106Z,4.00
2018-12-21T11:44:28.249Z,4.60
2018-12-21T11:45:27.917Z,4.10
2018-12-21T11:46:27.901Z,3.50
2018-12-21T11:47:27.859Z,3.90
2018-12-21T11:48:27.617Z,3.90
2018-12-21T11:49:27.608Z,4.00
2018-12-21T11:50:27.572Z,4.50
2018-12-21T11:51:27.566Z,4.60
2018-12-21T11:52:27.529Z,3.80
2018-12-21T11:53:27.508Z,4.30
2018-12-21T11:54:27.485Z,4.30
2018-12-21T11:55:27.472Z,4.30
2018-12-21T11:56:27.450Z,4.60
2018-12-21T11:57:27.422Z,5.00
2018-12-21T11:58:27.402Z,5.50
2018-12-21T11:59:27.392Z,5.40
2018-12-21T12:00:27.361Z,5.20
2018-12-21T12:01:27.340Z,5.50
2018-12-21T12:02:27.308Z,4.90
2018-12-21T12:03:27.287Z,5.90
2018-12-21T12:04:27.276Z,5.20
2018-12-21T12:05:27.249Z,5.50
2018-12-21T12:06:27.259Z,5.80
2018-12-21T12:07:27.204Z,6.50
2018-12-21T12:08:27.179Z,5.70
2018-12-21T12:09:27.162Z,5.80
2018-12-21T12:10:27.134Z,6.10
2018-12-21T12:11:27.111Z,6.20
2018-12-21T12:12:27.089Z,6.40
2018-12-21T12:13:27.077Z,6.00
2018-12-21T12:14:27.097Z,6.60
2018-12-21T12:15:28.651Z,6.80
2018-12-21T12:16:27.006Z,6.50
2018-12-21T12:17:26.980Z,6.80
2018-12-21T12:18:26.960Z,6.70
2018-12-21T12:19:26.963Z,6.90
2018-12-21T12:20:27.124Z,7.10
2018-12-21T12:21:26.902Z,6.70
2018-12-21T12:22:26.871Z,6.90
2018-12-21T12:23:26.849Z,7.50
2018-12-21T12:24:26.835Z,6.80
2018-12-21T12:25:26.806Z,6.60
2018-12-21T12:26:26.783Z,7.60
2018-12-21T12:27:26.765Z,7.30
2018-12-21T12:28:26.743Z,7.30
2018-12-21T12:29:26.728Z,7.60
2018-12-21T12:30:27.032Z,7.90
2018-12-21T12:31:26.677Z,8.50
2018-12-21T12:32:27.377Z,8.50
2018-12-21T12:33:26.951Z,8.80
2018-12-21T12:34:26.929Z,9.00
2018-12-21T12:35:26.718Z,9.20
2018-12-21T12:36:26.576Z,9.50
2018-12-21T12:37:26.564Z,9.90
2018-12-21T12:38:26.532Z,10.30
2018-12-21T12:39:26.517Z,10.40
2018-12-21T12:40:26.499Z,10.70
2018-12-21T12:41:26.775Z,10.60
2018-12-21T12:42:26.756Z,11.20
2018-12-21T12:43:26.745Z,11.70
2018-12-21T12:44:26.402Z,12.70
2018-12-21T12:45:26.388Z,12.30
2018-12-21T12:46:26.697Z,11.70
2018-12-21T12:47:26.662Z,10.40
2018-12-21T12:48:26.313Z,11.50
2018-12-21T12:49:27.953Z,11.20
2018-12-21T12:50:26.390Z,10.80
2018-12-21T12:51:26.265Z,10.90
2018-12-21T12:52:26.356Z,11.30
2018-12-21T12:53:26.217Z,11.40
2018-12-21T12:54:26.198Z,11.80
2018-12-21T12:55:26.166Z,11.30
2018-12-21T12:56:26.145Z,11.60
2018-12-21T12:57:27.044Z,11.70
2018-12-21T12:58:26.111Z,12.30
2018-12-21T12:59:26.396Z,12.00
2018-12-21T13:00:26.070Z,11.20
2018-12-21T13:01:26.364Z,11.80
2018-12-21T13:02:26.105Z,11.30
2018-12-21T13:03:26.322Z,10.40
2018-12-21T13:04:26.182Z,10.00
2018-12-21T13:05:26.165Z,9.80
2018-12-21T13:06:26.147Z,9.80
2018-12-21T13:07:25.907Z,10.20
2018-12-21T13:08:26.199Z,8.80
2018-12-21T13:09:25.872Z,8.80
2018-12-21T13:10:25.843Z,8.60
2018-12-21T13:11:25.828Z,8.80
2018-12-21T13:12:25.809Z,8.20
2018-12-21T13:13:26.025Z,8.10
2018-12-21T13:14:25.779Z,7.20
2018-12-21T13:15:26.067Z,6.90
2018-12-21T13:16:25.721Z,5.80
2018-12-21T13:17:25.697Z,6.60
2018-12-21T13:18:25.680Z,5.90
2018-12-21T13:19:25.656Z,5.30